sensor_id;sensor_type;location;lat;lon;timestamp;P1;durP1;ratioP1;P2;durP2;ratioP2
21825;SDS011;11075;47.944;11.776;2023-04-24T00:01:21;2.73;;;0.70;;
21825;SDS011;11075;47.944;11.776;2023-04-24T00:03:49;1.63;;;0.80;;
21825;SDS011;11075;47.944;11.776;2023-04-24T00:06:16;0.80;;;0.70;;
21825;SDS011;11075;47.944;11.776;2023-04-24T00:08:43;4.93;;;0.80;;
21825;SDS011;11075;47.944;11.776;2023-04-24T00:11:10;1.10;;;0.60;;
21825;SDS011;11075;47.944;11.776;2023-04-24T00:13:37;3.40;;;0.90;;
21825;SDS011;11075;47.944;11.776;2023-04-24T00:16:04;0.63;;;0.60;;
21825;SDS011;11075;47.944;11.776;2023-04-24T00:18:32;0.70;;;0.60;;
21825;SDS011;11075;47.944;11.776;2023-04-24T00:20:59;0.70;;;0.60;;
21825;SDS011;11075;47.944;11.776;2023-04-24T00:23:26;1.90;;;0.60;;
21825;SDS011;11075;47.944;11.776;2023-04-24T00:25:53;1.30;;;0.73;;
21825;SDS011;11075;47.944;11.776;2023-04-24T00:28:20;2.33;;;0.40;;
21825;SDS011;11075;47.944;11.776;2023-04-24T00:30:46;1.60;;;0.80;;
21825;SDS011;11075;47.944;11.776;2023-04-24T00:33:13;2.03;;;0.70;;
21825;SDS011;11075;47.944;11.776;2023-04-24T00:35:41;0.57;;;0.50;;
21825;SDS011;11075;47.944;11.776;2023-04-24T00:38:09;1.70;;;0.40;;
21825;SDS011;11075;47.944;11.776;2023-04-24T00:40:36;1.50;;;0.50;;
21825;SDS011;11075;47.944;11.776;2023-04-24T00:43:03;0.40;;;0.40;;
21825;SDS011;11075;47.944;11.776;2023-04-24T00:45:30;2.27;;;0.67;;
21825;SDS011;11075;47.944;11.776;2023-04-24T00:47:58;1.10;;;0.50;;
21825;SDS011;11075;47.944;11.776;2023-04-24T00:50:26;3.37;;;0.63;;
21825;SDS011;11075;47.944;11.776;2023-04-24T00:52:55;0.50;;;0.50;;
21825;SDS011;11075;47.944;11.776;2023-04-24T00:55:22;0.43;;;0.40;;
21825;SDS011;11075;47.944;11.776;2023-04-24T00:57:48;0.47;;;0.40;;
21825;SDS011;11075;47.944;11.776;2023-04-24T01:00:17;0.80;;;0.40;;
21825;SDS011;11075;47.944;11.776;2023-04-24T01:02:44;1.00;;;0.60;;
21825;SDS011;11075;47.944;11.776;2023-04-24T01:05:12;2.83;;;0.50;;
21825;SDS011;11075;47.944;11.776;2023-04-24T01:07:44;0.70;;;0.47;;
21825;SDS011;11075;47.944;11.776;2023-04-24T01:10:14;0.70;;;0.50;;
21825;SDS011;11075;47.944;11.776;2023-04-24T01:12:44;1.07;;;0.60;;
21825;SDS011;11075;47.944;11.776;2023-04-24T01:15:11;0.60;;;0.50;;
21825;SDS011;11075;47.944;11.776;2023-04-24T01:17:41;0.50;;;0.40;;
21825;SDS011;11075;47.944;11.776;2023-04-24T01:20:08;1.13;;;0.53;;
21825;SDS011;11075;47.944;11.776;2023-04-24T01:22:35;3.57;;;0.60;;
21825;SDS011;11075;47.944;11.776;2023-04-24T01:25:02;0.50;;;0.50;;
21825;SDS011;11075;47.944;11.776;2023-04-24T01:27:30;0.60;;;0.53;;
21825;SDS011;11075;47.944;11.776;2023-04-24T01:29:57;0.97;;;0.67;;
21825;SDS011;11075;47.944;11.776;2023-04-24T01:32:24;2.13;;;0.60;;
21825;SDS011;11075;47.944;11.776;2023-04-24T01:34:52;0.50;;;0.40;;
21825;SDS011;11075;47.944;11.776;2023-04-24T01:37:18;2.80;;;0.57;;
21825;SDS011;11075;47.944;11.776;2023-04-24T01:39:45;4.00;;;0.60;;
21825;SDS011;11075;47.944;11.776;2023-04-24T01:42:12;2.77;;;0.83;;
21825;SDS011;11075;47.944;11.776;2023-04-24T01:44:39;1.33;;;0.50;;
21825;SDS011;11075;47.944;11.776;2023-04-24T01:47:08;0.97;;;0.63;;
21825;SDS011;11075;47.944;11.776;2023-04-24T01:49:35;1.27;;;0.53;;
21825;SDS011;11075;47.944;11.776;2023-04-24T01:52:04;0.50;;;0.40;;
21825;SDS011;11075;47.944;11.776;2023-04-24T01:54:32;0.53;;;0.53;;
21825;SDS011;11075;47.944;11.776;2023-04-24T01:57:00;3.03;;;0.53;;
21825;SDS011;11075;47.944;11.776;2023-04-24T01:59:29;2.00;;;0.60;;
21825;SDS011;11075;47.944;11.776;2023-04-24T02:01:56;0.40;;;0.40;;
21825;SDS011;11075;47.944;11.776;2023-04-24T02:04:23;6.97;;;0.67;;
21825;SDS011;11075;47.944;11.776;2023-04-24T02:06:50;2.57;;;0.50;;
21825;SDS011;11075;47.944;11.776;2023-04-24T02:09:17;0.40;;;0.40;;
21825;SDS011;11075;47.944;11.776;2023-04-24T02:11:44;2.37;;;0.43;;
21825;SDS011;11075;47.944;11.776;2023-04-24T02:14:11;0.83;;;0.40;;
21825;SDS011;11075;47.944;11.776;2023-04-24T02:16:39;0.40;;;0.40;;
21825;SDS011;11075;47.944;11.776;2023-04-24T02:19:06;0.90;;;0.50;;
21825;SDS011;11075;47.944;11.776;2023-04-24T02:21:33;2.50;;;0.50;;
21825;SDS011;11075;47.944;11.776;2023-04-24T02:24:00;0.70;;;0.40;;
21825;SDS011;11075;47.944;11.776;2023-04-24T02:26:27;1.03;;;0.50;;
21825;SDS011;11075;47.944;11.776;2023-04-24T02:28:54;1.50;;;0.60;;
21825;SDS011;11075;47.944;11.776;2023-04-24T02:31:21;0.37;;;0.37;;
21825;SDS011;11075;47.944;11.776;2023-04-24T02:33:48;2.03;;;0.60;;
21825;SDS011;11075;47.944;11.776;2023-04-24T02:36:16;1.73;;;0.57;;
21825;SDS011;11075;47.944;11.776;2023-04-24T02:38:43;1.90;;;0.50;;
21825;SDS011;11075;47.944;11.776;2023-04-24T02:41:11;1.60;;;0.70;;
21825;SDS011;11075;47.944;11.776;2023-04-24T02:43:38;0.40;;;0.40;;
21825;SDS011;11075;47.944;11.776;2023-04-24T02:46:05;0.40;;;0.40;;
21825;SDS011;11075;47.944;11.776;2023-04-24T02:48:32;0.50;;;0.50;;
21825;SDS011;11075;47.944;11.776;2023-04-24T02:50:59;0.50;;;0.50;;
21825;SDS011;11075;47.944;11.776;2023-04-24T02:53:26;0.73;;;0.73;;
21825;SDS011;11075;47.944;11.776;2023-04-24T02:55:53;6.27;;;0.47;;
21825;SDS011;11075;47.944;11.776;2023-04-24T02:58:20;0.60;;;0.60;;
21825;SDS011;11075;47.944;11.776;2023-04-24T03:00:47;1.43;;;0.70;;
21825;SDS011;11075;47.944;11.776;2023-04-24T03:03:14;1.60;;;0.40;;
21825;SDS011;11075;47.944;11.776;2023-04-24T03:05:41;0.60;;;0.33;;
21825;SDS011;11075;47.944;11.776;2023-04-24T03:08:08;2.33;;;0.60;;
21825;SDS011;11075;47.944;11.776;2023-04-24T03:10:36;0.70;;;0.40;;
21825;SDS011;11075;47.944;11.776;2023-04-24T03:13:03;0.50;;;0.50;;
21825;SDS011;11075;47.944;11.776;2023-04-24T03:15:30;0.77;;;0.63;;
21825;SDS011;11075;47.944;11.776;2023-04-24T03:17:57;0.77;;;0.53;;
21825;SDS011;11075;47.944;11.776;2023-04-24T03:20:24;1.30;;;0.50;;
21825;SDS011;11075;47.944;11.776;2023-04-24T03:22:51;1.33;;;0.70;;
21825;SDS011;11075;47.944;11.776;2023-04-24T03:25:17;0.53;;;0.50;;
21825;SDS011;11075;47.944;11.776;2023-04-24T03:27:45;1.70;;;0.60;;
21825;SDS011;11075;47.944;11.776;2023-04-24T03:30:21;0.73;;;0.60;;
21825;SDS011;11075;47.944;11.776;2023-04-24T03:32:54;0.93;;;0.60;;
21825;SDS011;11075;47.944;11.776;2023-04-24T03:35:25;1.70;;;0.60;;
21825;SDS011;11075;47.944;11.776;2023-04-24T03:37:52;0.53;;;0.50;;
21825;SDS011;11075;47.944;11.776;2023-04-24T03:40:37;0.77;;;0.77;;
21825;SDS011;11075;47.944;11.776;2023-04-24T03:43:15;0.47;;;0.47;;
21825;SDS011;11075;47.944;11.776;2023-04-24T03:45:41;0.40;;;0.40;;
21825;SDS011;11075;47.944;11.776;2023-04-24T03:48:10;2.33;;;0.70;;
21825;SDS011;11075;47.944;11.776;2023-04-24T03:50:37;0.93;;;0.70;;
21825;SDS011;11075;47.944;11.776;2023-04-24T03:53:06;1.47;;;0.50;;
21825;SDS011;11075;47.944;11.776;2023-04-24T03:55:36;0.60;;;0.47;;
21825;SDS011;11075;47.944;11.776;2023-04-24T03:58:03;1.00;;;0.53;;
21825;SDS011;11075;47.944;11.776;2023-04-24T04:00:30;0.50;;;0.50;;
21825;SDS011;11075;47.944;11.776;2023-04-24T04:03:24;0.50;;;0.50;;
21825;SDS011;11075;47.944;11.776;2023-04-24T04:05:52;0.40;;;0.40;;
21825;SDS011;11075;47.944;11.776;2023-04-24T04:08:20;0.83;;;0.60;;
21825;SDS011;11075;47.944;11.776;2023-04-24T04:10:47;4.90;;;0.40;;
21825;SDS011;11075;47.944;11.776;2023-04-24T04:13:14;1.60;;;1.03;;
21825;SDS011;11075;47.944;11.776;2023-04-24T04:15:40;0.40;;;0.40;;
21825;SDS011;11075;47.944;11.776;2023-04-24T04:18:07;0.53;;;0.30;;
21825;SDS011;11075;47.944;11.776;2023-04-24T04:20:35;1.73;;;0.40;;
21825;SDS011;11075;47.944;11.776;2023-04-24T04:23:02;0.77;;;0.50;;
21825;SDS011;11075;47.944;11.776;2023-04-24T04:25:41;2.03;;;0.80;;
21825;SDS011;11075;47.944;11.776;2023-04-24T04:28:08;2.83;;;0.70;;
21825;SDS011;11075;47.944;11.776;2023-04-24T04:30:35;2.03;;;0.50;;
21825;SDS011;11075;47.944;11.776;2023-04-24T04:33:04;1.00;;;0.50;;
21825;SDS011;11075;47.944;11.776;2023-04-24T04:35:32;3.03;;;0.73;;
21825;SDS011;11075;47.944;11.776;2023-04-24T04:37:59;2.10;;;0.60;;
21825;SDS011;11075;47.944;11.776;2023-04-24T04:40:47;0.60;;;0.43;;
21825;SDS011;11075;47.944;11.776;2023-04-24T04:43:15;0.37;;;0.37;;
21825;SDS011;11075;47.944;11.776;2023-04-24T04:45:49;0.50;;;0.50;;
21825;SDS011;11075;47.944;11.776;2023-04-24T04:48:31;3.13;;;0.67;;
21825;SDS011;11075;47.944;11.776;2023-04-24T04:50:59;0.50;;;0.50;;
21825;SDS011;11075;47.944;11.776;2023-04-24T04:53:28;1.00;;;0.43;;
21825;SDS011;11075;47.944;11.776;2023-04-24T04:55:55;0.50;;;0.50;;
21825;SDS011;11075;47.944;11.776;2023-04-24T04:58:26;2.30;;;0.80;;
21825;SDS011;11075;47.944;11.776;2023-04-24T05:00:57;1.90;;;0.80;;
21825;SDS011;11075;47.944;11.776;2023-04-24T05:03:28;0.90;;;0.90;;
21825;SDS011;11075;47.944;11.776;2023-04-24T05:06:01;0.90;;;0.60;;
21825;SDS011;11075;47.944;11.776;2023-04-24T05:08:32;2.10;;;0.80;;
21825;SDS011;11075;47.944;11.776;2023-04-24T05:10:59;2.93;;;0.80;;
21825;SDS011;11075;47.944;11.776;2023-04-24T05:13:28;0.90;;;0.50;;
21825;SDS011;11075;47.944;11.776;2023-04-24T05:16:16;1.53;;;0.67;;
21825;SDS011;11075;47.944;11.776;2023-04-24T05:18:43;0.57;;;0.57;;
21825;SDS011;11075;47.944;11.776;2023-04-24T05:21:14;3.37;;;0.63;;
21825;SDS011;11075;47.944;11.776;2023-04-24T05:23:44;3.63;;;0.80;;
21825;SDS011;11075;47.944;11.776;2023-04-24T05:26:14;1.70;;;0.50;;
21825;SDS011;11075;47.944;11.776;2023-04-24T05:28:41;0.73;;;0.73;;
21825;SDS011;11075;47.944;11.776;2023-04-24T05:31:11;1.30;;;0.73;;
21825;SDS011;11075;47.944;11.776;2023-04-24T05:33:38;1.40;;;0.57;;
21825;SDS011;11075;47.944;11.776;2023-04-24T05:36:05;1.83;;;0.80;;
21825;SDS011;11075;47.944;11.776;2023-04-24T05:38:33;1.87;;;0.60;;
21825;SDS011;11075;47.944;11.776;2023-04-24T05:41:00;2.30;;;0.60;;
21825;SDS011;11075;47.944;11.776;2023-04-24T05:43:26;0.40;;;0.40;;
21825;SDS011;11075;47.944;11.776;2023-04-24T05:45:53;5.80;;;0.50;;
21825;SDS011;11075;47.944;11.776;2023-04-24T05:48:20;1.33;;;0.50;;
21825;SDS011;11075;47.944;11.776;2023-04-24T05:50:49;0.97;;;0.40;;
21825;SDS011;11075;47.944;11.776;2023-04-24T05:53:16;0.40;;;0.40;;
21825;SDS011;11075;47.944;11.776;2023-04-24T05:55:43;1.87;;;0.40;;
21825;SDS011;11075;47.944;11.776;2023-04-24T05:58:11;0.40;;;0.40;;
21825;SDS011;11075;47.944;11.776;2023-04-24T06:00:38;1.90;;;0.40;;
21825;SDS011;11075;47.944;11.776;2023-04-24T06:03:08;0.40;;;0.40;;
21825;SDS011;11075;47.944;11.776;2023-04-24T06:05:36;1.57;;;0.40;;
21825;SDS011;11075;47.944;11.776;2023-04-24T06:08:03;0.83;;;0.43;;
21825;SDS011;11075;47.944;11.776;2023-04-24T06:10:34;0.33;;;0.20;;
21825;SDS011;11075;47.944;11.776;2023-04-24T06:13:02;0.30;;;0.30;;
21825;SDS011;11075;47.944;11.776;2023-04-24T06:15:31;0.60;;;0.30;;
21825;SDS011;11075;47.944;11.776;2023-04-24T06:18:10;0.90;;;0.40;;
21825;SDS011;11075;47.944;11.776;2023-04-24T06:20:38;1.90;;;0.40;;
21825;SDS011;11075;47.944;11.776;2023-04-24T06:23:08;1.80;;;0.27;;
21825;SDS011;11075;47.944;11.776;2023-04-24T06:25:35;0.53;;;0.50;;
21825;SDS011;11075;47.944;11.776;2023-04-24T06:28:03;0.53;;;0.50;;
21825;SDS011;11075;47.944;11.776;2023-04-24T06:30:30;0.30;;;0.30;;
21825;SDS011;11075;47.944;11.776;2023-04-24T06:32:57;0.20;;;0.20;;
21825;SDS011;11075;47.944;11.776;2023-04-24T06:35:38;0.47;;;0.40;;
21825;SDS011;11075;47.944;11.776;2023-04-24T06:38:05;3.80;;;0.40;;
21825;SDS011;11075;47.944;11.776;2023-04-24T06:40:32;0.63;;;0.40;;
21825;SDS011;11075;47.944;11.776;2023-04-24T06:43:00;0.33;;;0.33;;
21825;SDS011;11075;47.944;11.776;2023-04-24T06:45:29;1.10;;;0.53;;
21825;SDS011;11075;47.944;11.776;2023-04-24T06:47:56;2.47;;;0.30;;
21825;SDS011;11075;47.944;11.776;2023-04-24T06:50:23;0.93;;;0.40;;
21825;SDS011;11075;47.944;11.776;2023-04-24T06:52:50;1.90;;;0.30;;
21825;SDS011;11075;47.944;11.776;2023-04-24T06:55:17;0.20;;;0.20;;
21825;SDS011;11075;47.944;11.776;2023-04-24T06:57:44;0.20;;;0.20;;
21825;SDS011;11075;47.944;11.776;2023-04-24T07:00:11;4.00;;;0.40;;
21825;SDS011;11075;47.944;11.776;2023-04-24T07:02:39;1.07;;;0.40;;
21825;SDS011;11075;47.944;11.776;2023-04-24T07:05:06;0.30;;;0.30;;
21825;SDS011;11075;47.944;11.776;2023-04-24T07:07:35;0.30;;;0.30;;
21825;SDS011;11075;47.944;11.776;2023-04-24T07:10:04;0.30;;;0.30;;
21825;SDS011;11075;47.944;11.776;2023-04-24T07:12:32;0.30;;;0.30;;
21825;SDS011;11075;47.944;11.776;2023-04-24T07:15:00;0.30;;;0.30;;
21825;SDS011;11075;47.944;11.776;2023-04-24T07:17:27;0.20;;;0.20;;
21825;SDS011;11075;47.944;11.776;2023-04-24T07:19:54;0.20;;;0.20;;
21825;SDS011;11075;47.944;11.776;2023-04-24T07:22:20;0.17;;;0.17;;
21825;SDS011;11075;47.944;11.776;2023-04-24T07:24:48;0.60;;;0.20;;
21825;SDS011;11075;47.944;11.776;2023-04-24T07:27:14;0.10;;;0.10;;
21825;SDS011;11075;47.944;11.776;2023-04-24T07:29:41;0.37;;;0.27;;
21825;SDS011;11075;47.944;11.776;2023-04-24T07:32:09;0.10;;;0.10;;
21825;SDS011;11075;47.944;11.776;2023-04-24T07:34:36;0.20;;;0.20;;
21825;SDS011;11075;47.944;11.776;2023-04-24T07:37:03;0.30;;;0.30;;
21825;SDS011;11075;47.944;11.776;2023-04-24T07:39:31;0.10;;;0.10;;
21825;SDS011;11075;47.944;11.776;2023-04-24T07:41:58;0.13;;;0.13;;
21825;SDS011;11075;47.944;11.776;2023-04-24T07:44:25;0.37;;;0.20;;
21825;SDS011;11075;47.944;11.776;2023-04-24T07:46:52;0.20;;;0.20;;
21825;SDS011;11075;47.944;11.776;2023-04-24T07:49:20;0.40;;;0.30;;
21825;SDS011;11075;47.944;11.776;2023-04-24T07:51:48;0.37;;;0.20;;
21825;SDS011;11075;47.944;11.776;2023-04-24T07:54:16;0.27;;;0.27;;
21825;SDS011;11075;47.944;11.776;2023-04-24T07:56:43;0.20;;;0.20;;
21825;SDS011;11075;47.944;11.776;2023-04-24T07:59:10;0.10;;;0.10;;
21825;SDS011;11075;47.944;11.776;2023-04-24T08:01:38;0.20;;;0.20;;
21825;SDS011;11075;47.944;11.776;2023-04-24T08:04:05;0.20;;;0.20;;
21825;SDS011;11075;47.944;11.776;2023-04-24T08:06:33;3.47;;;0.43;;
21825;SDS011;11075;47.944;11.776;2023-04-24T08:09:00;1.90;;;0.30;;
21825;SDS011;11075;47.944;11.776;2023-04-24T08:11:26;0.30;;;0.20;;
21825;SDS011;11075;47.944;11.776;2023-04-24T08:13:54;0.20;;;0.20;;
21825;SDS011;11075;47.944;11.776;2023-04-24T08:16:21;0.60;;;0.10;;
21825;SDS011;11075;47.944;11.776;2023-04-24T08:18:51;0.47;;;0.23;;
21825;SDS011;11075;47.944;11.776;2023-04-24T08:21:18;0.53;;;0.23;;
21825;SDS011;11075;47.944;11.776;2023-04-24T08:23:47;0.63;;;0.30;;
21825;SDS011;11075;47.944;11.776;2023-04-24T08:26:13;0.20;;;0.20;;
21825;SDS011;11075;47.944;11.776;2023-04-24T08:28:40;0.20;;;0.20;;
21825;SDS011;11075;47.944;11.776;2023-04-24T08:31:07;0.27;;;0.20;;
21825;SDS011;11075;47.944;11.776;2023-04-24T08:33:35;4.00;;;0.40;;
21825;SDS011;11075;47.944;11.776;2023-04-24T08:36:02;0.97;;;0.30;;
21825;SDS011;11075;47.944;11.776;2023-04-24T08:38:30;1.20;;;0.20;;
21825;SDS011;11075;47.944;11.776;2023-04-24T08:40:58;0.70;;;0.33;;
21825;SDS011;11075;47.944;11.776;2023-04-24T08:43:26;0.20;;;0.20;;
21825;SDS011;11075;47.944;11.776;2023-04-24T08:45:55;0.10;;;0.10;;
21825;SDS011;11075;47.944;11.776;2023-04-24T08:48:23;1.10;;;0.13;;
21825;SDS011;11075;47.944;11.776;2023-04-24T08:50:57;0.63;;;0.40;;
21825;SDS011;11075;47.944;11.776;2023-04-24T08:53:25;0.23;;;0.23;;
21825;SDS011;11075;47.944;11.776;2023-04-24T08:55:52;0.73;;;0.30;;
21825;SDS011;11075;47.944;11.776;2023-04-24T08:58:22;1.33;;;0.30;;
21825;SDS011;11075;47.944;11.776;2023-04-24T09:00:54;0.30;;;0.30;;
21825;SDS011;11075;47.944;11.776;2023-04-24T09:03:22;0.53;;;0.30;;
21825;SDS011;11075;47.944;11.776;2023-04-24T09:05:50;0.20;;;0.20;;
21825;SDS011;11075;47.944;11.776;2023-04-24T09:08:19;0.70;;;0.40;;
21825;SDS011;11075;47.944;11.776;2023-04-24T09:10:46;0.33;;;0.30;;
21825;SDS011;11075;47.944;11.776;2023-04-24T09:13:17;4.50;;;0.40;;
21825;SDS011;11075;47.944;11.776;2023-04-24T09:15:45;0.40;;;0.40;;
21825;SDS011;11075;47.944;11.776;2023-04-24T09:18:12;0.30;;;0.30;;
21825;SDS011;11075;47.944;11.776;2023-04-24T09:23:26;0.40;;;0.40;;
21825;SDS011;11075;47.944;11.776;2023-04-24T09:25:57;0.40;;;0.40;;
21825;SDS011;11075;47.944;11.776;2023-04-24T09:28:25;2.80;;;0.57;;
21825;SDS011;11075;47.944;11.776;2023-04-24T09:31:06;0.80;;;0.43;;
21825;SDS011;11075;47.944;11.776;2023-04-24T09:33:39;0.50;;;0.50;;
21825;SDS011;11075;47.944;11.776;2023-04-24T09:36:07;0.57;;;0.50;;
21825;SDS011;11075;47.944;11.776;2023-04-24T09:38:37;0.80;;;0.50;;
21825;SDS011;11075;47.944;11.776;2023-04-24T09:41:06;0.40;;;0.40;;
21825;SDS011;11075;47.944;11.776;2023-04-24T09:43:34;1.02;;;0.60;;
21825;SDS011;11075;47.944;11.776;2023-04-24T09:46:06;0.68;;;0.40;;
21825;SDS011;11075;47.944;11.776;2023-04-24T09:48:37;0.70;;;0.50;;
21825;SDS011;11075;47.944;11.776;2023-04-24T09:51:05;0.47;;;0.40;;
21825;SDS011;11075;47.944;11.776;2023-04-24T09:53:37;3.60;;;0.50;;
21825;SDS011;11075;47.944;11.776;2023-04-24T09:56:10;1.30;;;0.50;;
21825;SDS011;11075;47.944;11.776;2023-04-24T09:58:39;1.95;;;0.47;;
21825;SDS011;11075;47.944;11.776;2023-04-24T10:01:06;0.70;;;0.50;;
21825;SDS011;11075;47.944;11.776;2023-04-24T10:03:33;1.67;;;0.40;;
21825;SDS011;11075;47.944;11.776;2023-04-24T10:06:01;1.23;;;0.50;;
21825;SDS011;11075;47.944;11.776;2023-04-24T10:08:36;0.65;;;0.60;;
21825;SDS011;11075;47.944;11.776;2023-04-24T10:11:04;1.55;;;0.50;;
21825;SDS011;11075;47.944;11.776;2023-04-24T10:13:31;0.57;;;0.57;;
21825;SDS011;11075;47.944;11.776;2023-04-24T10:15:59;0.80;;;0.70;;
21825;SDS011;11075;47.944;11.776;2023-04-24T10:18:27;1.45;;;0.60;;
21825;SDS011;11075;47.944;11.776;2023-04-24T10:20:54;0.70;;;0.47;;
21825;SDS011;11075;47.944;11.776;2023-04-24T10:23:22;1.13;;;0.55;;
21825;SDS011;11075;47.944;11.776;2023-04-24T10:25:52;0.65;;;0.50;;
21825;SDS011;11075;47.944;11.776;2023-04-24T10:28:20;1.40;;;0.60;;
21825;SDS011;11075;47.944;11.776;2023-04-24T10:30:47;0.75;;;0.60;;
21825;SDS011;11075;47.944;11.776;2023-04-24T10:33:16;0.85;;;0.60;;
21825;SDS011;11075;47.944;11.776;2023-04-24T10:35:45;0.90;;;0.50;;
21825;SDS011;11075;47.944;11.776;2023-04-24T10:38:21;0.88;;;0.60;;
21825;SDS011;11075;47.944;11.776;2023-04-24T10:40:51;0.60;;;0.60;;
21825;SDS011;11075;47.944;11.776;2023-04-24T10:43:24;0.95;;;0.50;;
21825;SDS011;11075;47.944;11.776;2023-04-24T10:46:02;0.50;;;0.50;;
21825;SDS011;11075;47.944;11.776;2023-04-24T10:48:30;1.00;;;0.63;;
21825;SDS011;11075;47.944;11.776;2023-04-24T10:50:56;0.50;;;0.50;;
21825;SDS011;11075;47.944;11.776;2023-04-24T10:53:24;2.05;;;0.80;;
21825;SDS011;11075;47.944;11.776;2023-04-24T10:58:36;0.50;;;0.50;;
21825;SDS011;11075;47.944;11.776;2023-04-24T11:01:30;1.42;;;0.70;;
21825;SDS011;11075;47.944;11.776;2023-04-24T11:04:00;1.80;;;0.77;;
21825;SDS011;11075;47.944;11.776;2023-04-24T11:06:34;2.03;;;0.80;;
21825;SDS011;11075;47.944;11.776;2023-04-24T11:09:07;3.50;;;0.63;;
21825;SDS011;11075;47.944;11.776;2023-04-24T11:11:45;6.15;;;0.90;;
21825;SDS011;11075;47.944;11.776;2023-04-24T11:14:14;1.13;;;0.63;;
21825;SDS011;11075;47.944;11.776;2023-04-24T11:16:43;0.80;;;0.50;;
21825;SDS011;11075;47.944;11.776;2023-04-24T11:27:20;0.75;;;0.50;;
21825;SDS011;11075;47.944;11.776;2023-04-24T11:29:48;1.42;;;0.57;;
21825;SDS011;11075;47.944;11.776;2023-04-24T11:32:24;0.75;;;0.50;;
21825;SDS011;11075;47.944;11.776;2023-04-24T11:34:54;1.35;;;0.70;;
21825;SDS011;11075;47.944;11.776;2023-04-24T11:40:01;0.90;;;0.55;;
21825;SDS011;11075;47.944;11.776;2023-04-24T11:42:36;0.50;;;0.50;;
21825;SDS011;11075;47.944;11.776;2023-04-24T11:45:08;4.13;;;0.60;;
21825;SDS011;11075;47.944;11.776;2023-04-24T11:47:38;0.52;;;0.50;;
21825;SDS011;11075;47.944;11.776;2023-04-24T11:50:07;0.60;;;0.52;;
21825;SDS011;11075;47.944;11.776;2023-04-24T11:52:37;0.70;;;0.70;;
21825;SDS011;11075;47.944;11.776;2023-04-24T11:55:07;1.17;;;0.80;;
21825;SDS011;11075;47.944;11.776;2023-04-24T11:57:50;0.70;;;0.70;;
21825;SDS011;11075;47.944;11.776;2023-04-24T12:00:29;0.82;;;0.70;;
21825;SDS011;11075;47.944;11.776;2023-04-24T12:05:39;0.63;;;0.63;;
21825;SDS011;11075;47.944;11.776;2023-04-24T12:08:07;0.80;;;0.80;;
21825;SDS011;11075;47.944;11.776;2023-04-24T12:10:34;0.50;;;0.50;;
21825;SDS011;11075;47.944;11.776;2023-04-24T12:13:02;0.65;;;0.63;;
21825;SDS011;11075;47.944;11.776;2023-04-24T12:15:29;3.67;;;1.30;;
21825;SDS011;11075;47.944;11.776;2023-04-24T12:17:56;1.25;;;0.70;;
21825;SDS011;11075;47.944;11.776;2023-04-24T12:20:27;1.35;;;0.77;;
21825;SDS011;11075;47.944;11.776;2023-04-24T12:22:56;1.63;;;0.73;;
21825;SDS011;11075;47.944;11.776;2023-04-24T12:25:28;2.35;;;0.77;;
21825;SDS011;11075;47.944;11.776;2023-04-24T12:30:39;4.07;;;2.05;;
21825;SDS011;11075;47.944;11.776;2023-04-24T12:33:11;2.92;;;1.10;;
21825;SDS011;11075;47.944;11.776;2023-04-24T12:35:39;0.80;;;0.60;;
21825;SDS011;11075;47.944;11.776;2023-04-24T12:38:11;1.00;;;0.65;;
21825;SDS011;11075;47.944;11.776;2023-04-24T12:40:43;0.60;;;0.60;;
21825;SDS011;11075;47.944;11.776;2023-04-24T12:43:17;0.50;;;0.50;;
21825;SDS011;11075;47.944;11.776;2023-04-24T12:45:47;2.97;;;0.70;;
21825;SDS011;11075;47.944;11.776;2023-04-24T12:48:14;0.65;;;0.65;;
21825;SDS011;11075;47.944;11.776;2023-04-24T12:50:41;1.07;;;0.70;;
21825;SDS011;11075;47.944;11.776;2023-04-24T12:53:12;0.60;;;0.60;;
21825;SDS011;11075;47.944;11.776;2023-04-24T12:55:39;1.98;;;0.68;;
21825;SDS011;11075;47.944;11.776;2023-04-24T12:58:06;0.70;;;0.70;;
21825;SDS011;11075;47.944;11.776;2023-04-24T13:00:34;0.75;;;0.75;;
21825;SDS011;11075;47.944;11.776;2023-04-24T13:03:01;0.90;;;0.80;;
21825;SDS011;11075;47.944;11.776;2023-04-24T13:05:29;4.80;;;1.45;;
21825;SDS011;11075;47.944;11.776;2023-04-24T13:07:57;1.67;;;0.65;;
21825;SDS011;11075;47.944;11.776;2023-04-24T13:10:24;1.10;;;0.80;;
21825;SDS011;11075;47.944;11.776;2023-04-24T13:12:51;3.50;;;1.10;;
21825;SDS011;11075;47.944;11.776;2023-04-24T13:15:18;1.38;;;0.80;;
21825;SDS011;11075;47.944;11.776;2023-04-24T13:17:45;0.87;;;0.70;;
21825;SDS011;11075;47.944;11.776;2023-04-24T13:20:12;1.10;;;1.00;;
21825;SDS011;11075;47.944;11.776;2023-04-24T13:22:39;0.80;;;0.80;;
21825;SDS011;11075;47.944;11.776;2023-04-24T13:25:06;0.90;;;0.70;;
21825;SDS011;11075;47.944;11.776;2023-04-24T13:27:33;1.07;;;0.93;;
21825;SDS011;11075;47.944;11.776;2023-04-24T13:30:00;3.23;;;0.90;;
21825;SDS011;11075;47.944;11.776;2023-04-24T13:32:27;1.20;;;1.10;;
21825;SDS011;11075;47.944;11.776;2023-04-24T13:34:56;2.83;;;0.93;;
21825;SDS011;11075;47.944;11.776;2023-04-24T13:37:23;1.55;;;1.00;;
21825;SDS011;11075;47.944;11.776;2023-04-24T13:39:50;4.82;;;1.17;;
21825;SDS011;11075;47.944;11.776;2023-04-24T13:42:17;1.65;;;1.00;;
21825;SDS011;11075;47.944;11.776;2023-04-24T13:44:45;1.67;;;0.90;;
21825;SDS011;11075;47.944;11.776;2023-04-24T13:47:12;2.47;;;0.90;;
21825;SDS011;11075;47.944;11.776;2023-04-24T13:49:39;2.15;;;1.00;;
21825;SDS011;11075;47.944;11.776;2023-04-24T13:52:06;1.17;;;0.90;;
21825;SDS011;11075;47.944;11.776;2023-04-24T13:54:33;2.85;;;0.88;;
21825;SDS011;11075;47.944;11.776;2023-04-24T13:57:00;1.98;;;0.93;;
21825;SDS011;11075;47.944;11.776;2023-04-24T13:59:29;3.25;;;1.10;;
21825;SDS011;11075;47.944;11.776;2023-04-24T14:01:57;3.30;;;1.13;;
21825;SDS011;11075;47.944;11.776;2023-04-24T14:04:23;0.93;;;0.80;;
21825;SDS011;11075;47.944;11.776;2023-04-24T14:06:51;1.90;;;0.80;;
21825;SDS011;11075;47.944;11.776;2023-04-24T14:09:18;1.40;;;1.03;;
21825;SDS011;11075;47.944;11.776;2023-04-24T14:11:45;1.83;;;1.10;;
21825;SDS011;11075;47.944;11.776;2023-04-24T14:14:12;3.83;;;1.27;;
21825;SDS011;11075;47.944;11.776;2023-04-24T14:16:39;1.20;;;1.10;;
21825;SDS011;11075;47.944;11.776;2023-04-24T14:19:07;3.77;;;1.30;;
21825;SDS011;11075;47.944;11.776;2023-04-24T14:21:33;1.27;;;1.10;;
21825;SDS011;11075;47.944;11.776;2023-04-24T14:24:00;1.47;;;0.90;;
21825;SDS011;11075;47.944;11.776;2023-04-24T14:26:27;1.37;;;0.97;;
21825;SDS011;11075;47.944;11.776;2023-04-24T14:28:54;2.00;;;1.00;;
21825;SDS011;11075;47.944;11.776;2023-04-24T14:31:39;1.50;;;1.20;;
21825;SDS011;11075;47.944;11.776;2023-04-24T14:34:06;4.07;;;1.40;;
21825;SDS011;11075;47.944;11.776;2023-04-24T14:36:33;3.60;;;1.30;;
21825;SDS011;11075;47.944;11.776;2023-04-24T14:39:00;1.40;;;1.30;;
21825;SDS011;11075;47.944;11.776;2023-04-24T14:41:29;1.77;;;1.23;;
21825;SDS011;11075;47.944;11.776;2023-04-24T14:43:56;2.33;;;1.23;;
21825;SDS011;11075;47.944;11.776;2023-04-24T14:46:23;1.52;;;1.25;;
21825;SDS011;11075;47.944;11.776;2023-04-24T14:48:50;3.17;;;1.65;;
21825;SDS011;11075;47.944;11.776;2023-04-24T14:51:17;1.20;;;1.02;;
21825;SDS011;11075;47.944;11.776;2023-04-24T14:53:44;3.50;;;1.40;;
21825;SDS011;11075;47.944;11.776;2023-04-24T14:56:13;2.72;;;1.33;;
21825;SDS011;11075;47.944;11.776;2023-04-24T14:58:41;2.00;;;1.20;;
21825;SDS011;11075;47.944;11.776;2023-04-24T15:01:09;1.02;;;0.93;;
21825;SDS011;11075;47.944;11.776;2023-04-24T15:03:36;3.95;;;1.02;;